createdAt,value
2023-04-01T00:00:15.068Z,98752.31
2023-04-01T00:02:41.519Z,98754.16
2023-04-01T00:05:10.077Z,98752.69
2023-04-01T00:07:36.539Z,98755.09
2023-04-01T00:10:03.258Z,98754.13
2023-04-01T00:12:29.692Z,98751.19
2023-04-01T00:14:56.331Z,98753.13
2023-04-01T00:17:22.869Z,98754.00
2023-04-01T00:19:49.256Z,98759.50
2023-04-01T00:22:16.961Z,98747.94
2023-04-01T00:24:43.449Z,98754.53
2023-04-01T00:27:09.861Z,98756.25
2023-04-01T00:29:36.230Z,98752.97
2023-04-01T00:32:02.705Z,98754.03
2023-04-01T00:34:29.173Z,98760.69
2023-04-01T00:36:55.563Z,98752.44
2023-04-01T00:39:23.353Z,98753.50
2023-04-01T00:41:49.734Z,98754.25
2023-04-01T00:44:18.983Z,98754.06
2023-04-01T00:46:45.370Z,98757.19
2023-04-01T00:49:12.591Z,98754.47
2023-04-01T00:51:40.389Z,98753.13
2023-04-01T00:54:10.379Z,98756.50
2023-04-01T00:56:40.997Z,98751.44
2023-04-01T00:59:12.643Z,98758.84
2023-04-01T01:01:39.237Z,98762.50
2023-04-01T01:04:05.861Z,98759.13
2023-04-01T01:06:45.214Z,98760.44
2023-04-01T01:09:24.889Z,98762.28
2023-04-01T01:11:58.032Z,98758.94
2023-04-01T01:14:36.893Z,98753.72
2023-04-01T01:17:11.597Z,98760.31
2023-04-01T01:20:25.474Z,98761.84
2023-04-01T01:23:07.371Z,98760.47
2023-04-01T01:25:41.542Z,98767.53
2023-04-01T01:28:26.126Z,98757.97
2023-04-01T01:30:59.190Z,98764.59
2023-04-01T01:33:36.805Z,98753.72
2023-04-01T01:36:07.719Z,98764.22
2023-04-01T01:38:35.865Z,98760.44
2023-04-01T01:41:04.878Z,98761.34
2023-04-01T01:43:34.147Z,98757.53
2023-04-01T01:46:05.474Z,98763.63
2023-04-01T01:48:33.666Z,98759.47
2023-04-01T01:51:01.207Z,98761.94
2023-04-01T01:53:28.936Z,98763.47
2023-04-01T01:55:55.281Z,98754.84
2023-04-01T01:58:25.774Z,98759.03
2023-04-01T02:00:57.186Z,98756.72
2023-04-01T02:03:26.801Z,98756.13
2023-04-01T02:05:56.815Z,98768.53
2023-04-01T02:08:27.080Z,98765.66
2023-04-01T02:10:58.666Z,98763.16
2023-04-01T02:13:30.750Z,98760.91
2023-04-01T02:16:02.888Z,98758.47
2023-04-01T02:18:30.550Z,98760.06
2023-04-01T02:20:59.064Z,98763.28
2023-04-01T02:23:26.340Z,98759.75
2023-04-01T02:25:53.078Z,98757.78
2023-04-01T02:28:21.379Z,98759.28
2023-04-01T02:30:50.342Z,98763.94
2023-04-01T02:33:18.075Z,98765.91
2023-04-01T02:35:44.569Z,98755.47
2023-04-01T02:38:10.956Z,98765.97
2023-04-01T02:40:46.206Z,98771.50
2023-04-01T02:43:12.633Z,98759.06
2023-04-01T02:45:40.456Z,98765.47
2023-04-01T02:48:07.118Z,98768.94
2023-04-01T02:50:33.534Z,98770.84
2023-04-01T02:52:59.980Z,98784.63
2023-04-01T02:55:26.431Z,98776.72
2023-04-01T02:57:52.785Z,98769.84
2023-04-01T03:00:19.406Z,98778.44
2023-04-01T03:02:47.232Z,98768.78
2023-04-01T03:05:13.665Z,98775.09
2023-04-01T03:07:40.165Z,98776.97
2023-04-01T03:10:07.787Z,98774.59
2023-04-01T03:12:34.408Z,98774.69
2023-04-01T03:15:10.957Z,98778.97
2023-04-01T03:17:41.439Z,98775.72
2023-04-01T03:20:10.759Z,98773.84
2023-04-01T03:22:37.842Z,98788.25
2023-04-01T03:25:05.579Z,98779.47
2023-04-01T03:27:31.944Z,98780.47
2023-04-01T03:29:58.329Z,98778.72
2023-04-01T03:32:24.906Z,98777.59
2023-04-01T03:34:51.310Z,98783.25
2023-04-01T03:37:19.014Z,98772.16
2023-04-01T03:39:45.509Z,98783.16
2023-04-01T03:42:12.606Z,98777.31
2023-04-01T03:44:38.977Z,98785.25
2023-04-01T03:47:05.376Z,98785.88
2023-04-01T03:49:31.799Z,98784.38
2023-04-01T03:51:58.491Z,98785.84
2023-04-01T03:54:26.246Z,98787.66
2023-04-01T03:56:52.739Z,98787.03
2023-04-01T03:59:19.177Z,98786.50
2023-04-01T04:01:47.279Z,98789.72
2023-04-01T04:04:13.757Z,98787.69
2023-04-01T04:06:40.171Z,98795.28
2023-04-01T04:09:06.544Z,98794.88
2023-04-01T04:11:34.307Z,98792.75
2023-04-01T04:14:00.741Z,98796.25
2023-04-01T04:16:27.267Z,98801.09
2023-04-01T04:18:53.757Z,98794.97
2023-04-01T04:21:20.164Z,98795.13
2023-04-01T04:23:46.666Z,98800.34
2023-04-01T04:26:15.614Z,98803.34
2023-04-01T04:28:43.349Z,98798.28
2023-04-01T04:31:09.962Z,98802.34
2023-04-01T04:33:36.848Z,98806.84
2023-04-01T04:36:04.824Z,98802.28
2023-04-01T04:38:31.256Z,98810.50
2023-04-01T04:40:57.656Z,98809.78
2023-04-01T04:43:24.052Z,98808.38
2023-04-01T04:45:52.183Z,98812.69
2023-04-01T04:48:18.707Z,98804.28
2023-04-01T04:50:45.323Z,98813.16
2023-04-01T04:53:12.123Z,98810.00
2023-04-01T04:55:38.697Z,98820.06
2023-04-01T04:58:05.078Z,98817.81
2023-04-01T05:00:31.604Z,98814.38
2023-04-01T05:02:59.340Z,98815.88
2023-04-01T05:05:25.741Z,98826.97
2023-04-01T05:07:52.155Z,98817.25
2023-04-01T05:10:18.514Z,98818.69
2023-04-01T05:12:44.876Z,98816.81
2023-04-01T05:15:12.090Z,98819.44
2023-04-01T05:17:38.574Z,98821.19
2023-04-01T05:20:07.777Z,98827.06
2023-04-01T05:22:34.190Z,98821.88
2023-04-01T05:25:00.594Z,98831.16
2023-04-01T05:27:26.954Z,98821.13
2023-04-01T05:29:53.332Z,98821.44
2023-04-01T05:32:19.698Z,98825.53
2023-04-01T05:34:46.083Z,98830.34
2023-04-01T05:37:13.768Z,98833.28
2023-04-01T05:39:40.840Z,98831.25
2023-04-01T05:42:07.836Z,98829.25
2023-04-01T05:44:34.593Z,98840.81
2023-04-01T05:47:01.062Z,98836.09
2023-04-01T05:49:28.809Z,98834.66
2023-04-01T05:51:55.581Z,98843.75
2023-04-01T05:54:23.905Z,98845.31
2023-04-01T05:56:50.345Z,98842.59
2023-04-01T05:59:16.934Z,98843.03
2023-04-01T06:01:43.685Z,98844.16
2023-04-01T06:04:14.673Z,98853.53
2023-04-01T06:06:41.247Z,98851.72
2023-04-01T06:09:14.786Z,98848.09
2023-04-01T06:11:53.812Z,98846.00
2023-04-01T06:14:33.337Z,98855.22
2023-04-01T06:17:18.582Z,98857.31
2023-04-01T06:19:52.432Z,98849.78
2023-04-01T06:22:40.147Z,98856.31
2023-04-01T06:25:28.574Z,98859.59
2023-04-01T06:28:11.226Z,98869.72
2023-04-01T06:30:43.886Z,98874.03
2023-04-01T06:33:24.932Z,98865.16
2023-04-01T06:36:13.611Z,98880.66
2023-04-01T06:38:56.096Z,98874.09
2023-04-01T06:41:59.026Z,98879.31
2023-04-01T06:44:38.461Z,98884.97
2023-04-01T06:47:15.212Z,98881.91
2023-04-01T06:49:51.714Z,98883.47
2023-04-01T06:52:24.549Z,98880.59
2023-04-01T06:54:56.540Z,98883.91
2023-04-01T06:57:32.083Z,98888.00
2023-04-01T07:00:01.708Z,98888.44
2023-04-01T07:02:36.153Z,98890.78
2023-04-01T07:05:03.222Z,98894.13
2023-04-01T07:07:35.028Z,98892.00
2023-04-01T07:10:06.023Z,98895.03
2023-04-01T07:12:41.306Z,98892.88
2023-04-01T07:15:17.545Z,98895.81
2023-04-01T07:17:46.102Z,98898.16
2023-04-01T07:20:20.716Z,98901.28
2023-04-01T07:22:50.399Z,98903.47
2023-04-01T07:25:19.351Z,98903.81
2023-04-01T07:27:47.020Z,98911.16
2023-04-01T07:30:19.485Z,98907.84
2023-04-01T07:32:49.464Z,98918.63
2023-04-01T07:35:27.063Z,98924.06
2023-04-01T07:38:11.709Z,98928.22
2023-04-01T07:40:46.688Z,98924.09
2023-04-01T07:43:33.879Z,98928.31
2023-04-01T07:46:10.085Z,98929.38
2023-04-01T07:48:42.157Z,98938.53
2023-04-01T07:51:15.088Z,98931.91
2023-04-01T07:53:46.702Z,98936.53
2023-04-01T07:56:19.743Z,98940.50
2023-04-01T07:59:00.050Z,98942.38
2023-04-01T08:01:33.840Z,98938.44
2023-04-01T08:04:20.562Z,98947.63
2023-04-01T08:06:55.292Z,98951.47
2023-04-01T08:09:32.225Z,98952.53
2023-04-01T08:12:12.082Z,98951.88
2023-04-01T08:14:51.564Z,98953.81
2023-04-01T08:17:24.134Z,98953.81
2023-04-01T08:20:11.450Z,98963.63
2023-04-01T08:22:43.044Z,98958.25
2023-04-01T08:25:17.960Z,98964.31
2023-04-01T08:27:48.330Z,98969.03
2023-04-01T08:30:20.132Z,98974.19
2023-04-01T08:32:54.076Z,98969.28
2023-04-01T08:35:28.885Z,98970.66
2023-04-01T08:38:00.893Z,98969.66
2023-04-01T08:40:47.176Z,98973.44
2023-04-01T08:43:25.229Z,98972.56
2023-04-01T08:46:13.940Z,98971.59
2023-04-01T08:48:56.053Z,98974.59
2023-04-01T08:51:50.081Z,98976.53
2023-04-01T08:54:30.917Z,98977.91
2023-04-01T08:57:04.610Z,98979.41
2023-04-01T08:59:50.195Z,98981.00
2023-04-01T09:02:35.918Z,98987.03
2023-04-01T09:05:29.099Z,98982.03
2023-04-01T09:08:08.224Z,98989.75
2023-04-01T09:10:47.054Z,98984.53
2023-04-01T09:13:29.505Z,98989.50
2023-04-01T09:16:16.589Z,98989.34
2023-04-01T09:19:00.031Z,98999.06
2023-04-01T09:21:42.121Z,98998.38
2023-04-01T09:24:41.930Z,98997.50
2023-04-01T09:27:15.575Z,98997.16
2023-04-01T09:29:55.844Z,98998.38
2023-04-01T09:32:38.168Z,99008.81
2023-04-01T09:35:19.097Z,99009.84
2023-04-01T09:37:54.096Z,99004.78
2023-04-01T09:40:32.447Z,99016.56
2023-04-01T09:43:16.738Z,99015.63
2023-04-01T09:45:53.669Z,99017.28
2023-04-01T09:48:36.522Z,99017.97
2023-04-01T09:51:23.628Z,99021.66
2023-04-01T09:54:03.839Z,99020.03
2023-04-01T09:57:15.044Z,99026.19
2023-04-01T09:59:58.855Z,99030.97
2023-04-01T10:02:53.033Z,99025.81
2023-04-01T10:05:31.962Z,99029.53
2023-04-01T10:08:40.340Z,99036.19
2023-04-01T10:11:21.444Z,99037.00
2023-04-01T10:14:25.042Z,99046.66
2023-04-01T10:17:32.064Z,99046.03
2023-04-01T10:20:40.306Z,99043.22
2023-04-01T10:23:22.205Z,99043.25
2023-04-01T10:26:13.645Z,99056.56
2023-04-01T10:29:09.259Z,99048.97
2023-04-01T10:31:51.558Z,99052.56
2023-04-01T10:34:40.652Z,99057.88
2023-04-01T10:37:20.833Z,99054.00
2023-04-01T10:40:20.943Z,99053.28
2023-04-01T10:43:22.741Z,99053.56
2023-04-01T10:46:25.366Z,99060.28
2023-04-01T10:49:15.302Z,99062.47
2023-04-01T10:52:05.477Z,99062.03
2023-04-01T10:54:46.576Z,99066.88
2023-04-01T10:57:44.989Z,99069.66
2023-04-01T11:00:56.174Z,99069.03
2023-04-01T11:03:47.740Z,99077.28
2023-04-01T11:06:44.695Z,99078.19
2023-04-01T11:09:41.649Z,99080.09
2023-04-01T11:12:33.200Z,99085.31
2023-04-01T11:15:49.478Z,99086.25
2023-04-01T11:18:54.441Z,99089.53
2023-04-01T11:22:08.528Z,99092.59
2023-04-01T11:24:52.629Z,99098.25
2023-04-01T11:27:31.622Z,99103.09
2023-04-01T11:30:13.677Z,99101.50
2023-04-01T11:32:47.511Z,99108.22
2023-04-01T11:35:30.468Z,99100.59
2023-04-01T11:38:08.238Z,99106.50
2023-04-01T11:40:43.539Z,99104.78
2023-04-01T11:43:32.243Z,99105.03
2023-04-01T11:46:06.371Z,99109.88
2023-04-01T11:48:42.609Z,99111.88
2023-04-01T11:51:29.407Z,99111.09
2023-04-01T11:54:05.160Z,99118.13
2023-04-01T11:56:45.838Z,99119.00
2023-04-01T11:59:37.990Z,99126.53
2023-04-01T12:02:12.346Z,99134.19
2023-04-01T12:04:55.929Z,99131.66
2023-04-01T12:07:46.502Z,99134.25
2023-04-01T12:10:18.994Z,99132.81
2023-04-01T12:13:01.333Z,99137.78
2023-04-01T12:15:39.610Z,99146.84
2023-04-01T12:18:17.419Z,99147.47
2023-04-01T12:20:50.942Z,99141.59
2023-04-01T12:23:34.675Z,99145.72
2023-04-01T12:26:22.768Z,99148.84
2023-04-01T12:29:04.479Z,99146.75
2023-04-01T12:31:43.528Z,99154.00
2023-04-01T12:34:40.821Z,99151.88
2023-04-01T12:37:13.969Z,99149.53
2023-04-01T12:39:57.258Z,99149.50
2023-04-01T12:42:41.938Z,99164.06
2023-04-01T12:45:28.325Z,99161.50
2023-04-01T12:48:16.674Z,99170.72
2023-04-01T12:50:59.622Z,99162.75
2023-04-01T12:53:44.355Z,99174.53
2023-04-01T12:56:20.223Z,99165.09
2023-04-01T12:59:18.618Z,99181.19
2023-04-01T13:02:01.263Z,99180.09
2023-04-01T13:04:50.095Z,99177.13
2023-04-01T13:07:25.879Z,99177.22
2023-04-01T13:10:02.599Z,99193.31
2023-04-01T13:12:50.735Z,99196.53
2023-04-01T13:15:29.316Z,99200.00
2023-04-01T13:18:04.862Z,99213.88
2023-04-01T13:20:44.091Z,99202.09
2023-04-01T13:23:23.734Z,99206.56
2023-04-01T13:26:06.997Z,99206.00
2023-04-01T13:28:47.642Z,99216.84
2023-04-01T13:31:37.810Z,99219.78
2023-04-01T13:34:16.421Z,99221.59
2023-04-01T13:36:55.565Z,99226.66
2023-04-01T13:39:32.483Z,99226.72
2023-04-01T13:42:15.510Z,99224.81
2023-04-01T13:44:48.853Z,99241.38
2023-04-01T13:47:51.990Z,99254.78
2023-04-01T13:50:33.517Z,99253.91
2023-04-01T13:53:28.828Z,99259.13
2023-04-01T13:56:05.579Z,99269.88
2023-04-01T13:58:56.941Z,99267.22
2023-04-01T14:01:38.081Z,99266.16
2023-04-01T14:04:21.861Z,99269.16
2023-04-01T14:07:01.779Z,99282.94
2023-04-01T14:09:45.151Z,99282.94
2023-04-01T14:12:18.659Z,99291.13
2023-04-01T14:15:04.439Z,99296.56
2023-04-01T14:17:47.433Z,99312.06
2023-04-01T14:20:39.496Z,99308.28
2023-04-01T14:23:35.200Z,99314.34
2023-04-01T14:26:11.203Z,99324.38
2023-04-01T14:28:48.227Z,99322.41
2023-04-01T14:31:32.803Z,99330.03
2023-04-01T14:34:12.232Z,99338.47
2023-04-01T14:37:13.217Z,99320.31
2023-04-01T14:39:58.470Z,99341.69
2023-04-01T14:42:42.453Z,99347.22
2023-04-01T14:45:21.681Z,99356.97
2023-04-01T14:47:51.649Z,99357.94
2023-04-01T14:50:22.671Z,99359.72
2023-04-01T14:52:58.068Z,99362.03
2023-04-01T14:55:32.213Z,99374.59
2023-04-01T14:58:00.760Z,99380.94
2023-04-01T15:00:27.540Z,99370.50
2023-04-01T15:03:00.407Z,99379.78
2023-04-01T15:05:45.712Z,99397.22
2023-04-01T15:08:17.530Z,99391.84
2023-04-01T15:10:52.742Z,99395.25
2023-04-01T15:13:30.395Z,99403.25
2023-04-01T15:16:10.144Z,99412.66
2023-04-01T15:18:49.619Z,99422.25
2023-04-01T15:21:31.189Z,99412.31
2023-04-01T15:24:07.462Z,99412.13
2023-04-01T15:27:02.436Z,99423.41
2023-04-01T15:29:45.341Z,99440.34
2023-04-01T15:32:21.404Z,99446.69
2023-04-01T15:34:58.626Z,99451.41
2023-04-01T15:37:38.594Z,99450.97
2023-04-01T15:40:20.439Z,99457.91
2023-04-01T15:43:03.581Z,99460.69
2023-04-01T15:45:39.461Z,99465.53
2023-04-01T15:48:21.813Z,99482.97
2023-04-01T15:50:55.556Z,99494.78
2023-04-01T15:53:29.888Z,99483.88
2023-04-01T15:55:58.305Z,99490.34
2023-04-01T15:58:50.889Z,99496.09
2023-04-01T16:01:27.802Z,99495.63
2023-04-01T16:04:05.424Z,99497.69
2023-04-01T16:06:57.327Z,99520.91
2023-04-01T16:09:44.102Z,99515.50
2023-04-01T16:12:18.740Z,99519.72
2023-04-01T16:15:00.558Z,99524.66
2023-04-01T16:17:50.776Z,99527.56
2023-04-01T16:20:20.846Z,99536.25
2023-04-01T16:22:55.760Z,99536.59
2023-04-01T16:25:32.177Z,99541.88
2023-04-01T16:28:14.554Z,99544.84
2023-04-01T16:30:47.831Z,99547.97
2023-04-01T16:33:22.549Z,99547.38
2023-04-01T16:35:56.576Z,99559.31
2023-04-01T16:38:28.132Z,99560.84
2023-04-01T16:41:11.673Z,99567.78
2023-04-01T16:43:43.289Z,99581.22
2023-04-01T16:46:22.368Z,99589.31
2023-04-01T16:49:00.183Z,99590.25
2023-04-01T16:51:33.611Z,99593.31
2023-04-01T16:54:06.212Z,99601.69
2023-04-01T16:56:42.983Z,99608.44
2023-04-01T16:59:20.653Z,99614.00
2023-04-01T17:01:53.804Z,99612.66
2023-04-01T17:04:28.916Z,99636.19
2023-04-01T17:07:05.879Z,99626.84
2023-04-01T17:10:01.452Z,99633.09
2023-04-01T17:12:38.312Z,99649.72
2023-04-01T17:15:16.367Z,99646.06
2023-04-01T17:17:50.961Z,99660.56
2023-04-01T17:20:34.052Z,99657.50
2023-04-01T17:23:08.928Z,99671.50
2023-04-01T17:25:48.243Z,99678.00
2023-04-01T17:28:28.219Z,99684.72
2023-04-01T17:31:03.376Z,99692.91
2023-04-01T17:33:59.128Z,99695.41
2023-04-01T17:36:37.300Z,99706.94
2023-04-01T17:39:24.344Z,99707.28
2023-04-01T17:41:55.700Z,99721.97
2023-04-01T17:44:35.917Z,99718.81
2023-04-01T17:47:17.360Z,99736.38
2023-04-01T17:49:52.240Z,99731.53
2023-04-01T17:52:28.621Z,99735.53
2023-04-01T17:55:05.012Z,99744.78
2023-04-01T17:57:45.746Z,99746.31
2023-04-01T18:00:27.173Z,99759.97
2023-04-01T18:03:05.431Z,99766.31
2023-04-01T18:05:42.309Z,99770.25
2023-04-01T18:08:18.893Z,99771.34
2023-04-01T18:10:58.830Z,99787.75
2023-04-01T18:13:45.704Z,99786.78
2023-04-01T18:16:31.567Z,99807.19
2023-04-01T18:19:03.599Z,99823.13
2023-04-01T18:21:40.682Z,99812.88
2023-04-01T18:24:15.515Z,99816.75
2023-04-01T18:26:45.156Z,99816.84
2023-04-01T18:29:27.662Z,99832.56
2023-04-01T18:32:10.149Z,99832.00
2023-04-01T18:34:49.914Z,99849.72
2023-04-01T18:37:20.020Z,99850.38
2023-04-01T18:39:51.586Z,99851.31
2023-04-01T18:42:29.141Z,99859.88
2023-04-01T18:45:00.237Z,99860.91
2023-04-01T18:47:39.025Z,99877.03
2023-04-01T18:50:16.430Z,99886.66
2023-04-01T18:52:44.492Z,99884.56
2023-04-01T18:55:29.988Z,99885.75
2023-04-01T18:58:12.080Z,99902.47
2023-04-01T19:00:43.966Z,99905.00
2023-04-01T19:03:20.965Z,99904.97
2023-04-01T19:05:51.250Z,99913.56
2023-04-01T19:08:28.902Z,99916.88
2023-04-01T19:11:09.567Z,99915.84
2023-04-01T19:13:49.636Z,99934.44
2023-04-01T19:16:26.923Z,99931.47
2023-04-01T19:19:15.277Z,99941.28
2023-04-01T19:21:45.491Z,99947.94
2023-04-01T19:25:00.555Z,99950.47
2023-04-01T19:27:33.850Z,99957.59
2023-04-01T19:30:14.332Z,99967.13
2023-04-01T19:32:50.469Z,99977.88
2023-04-01T19:35:30.121Z,99981.50
2023-04-01T19:37:59.944Z,99976.78
2023-04-01T19:40:53.944Z,99985.72
2023-04-01T19:43:35.894Z,99994.38
2023-04-01T19:46:09.383Z,99996.34
2023-04-01T19:48:45.523Z,100006.31
2023-04-01T19:51:20.469Z,100021.91
2023-04-01T19:53:54.390Z,100012.00
2023-04-01T19:56:22.151Z,100018.84
2023-04-01T19:58:54.827Z,100021.91
2023-04-01T20:01:41.503Z,100040.09
2023-04-01T20:04:15.769Z,100041.13
2023-04-01T20:06:52.935Z,100045.50
2023-04-01T20:09:40.517Z,100051.19
2023-04-01T20:12:13.955Z,100060.09
2023-04-01T20:14:46.301Z,100070.25
2023-04-01T20:17:19.917Z,100072.25
2023-04-01T20:19:54.549Z,100075.06
2023-04-01T20:22:30.583Z,100090.47
2023-04-01T20:25:00.693Z,100094.50
2023-04-01T20:27:33.095Z,100093.09
2023-04-01T20:30:24.538Z,100101.03
2023-04-01T20:33:07.013Z,100102.91
2023-04-01T20:35:44.460Z,100114.78
2023-04-01T20:38:31.009Z,100127.97
2023-04-01T20:41:05.823Z,100136.00
2023-04-01T20:43:58.827Z,100133.53
2023-04-01T20:46:35.387Z,100137.13
2023-04-01T20:49:34.446Z,100140.94
2023-04-01T20:52:17.805Z,100137.94
2023-04-01T20:55:01.573Z,100148.38
2023-04-01T20:57:36.322Z,100151.66
2023-04-01T21:00:23.317Z,100171.47
2023-04-01T21:03:02.114Z,100163.50
2023-04-01T21:05:51.694Z,100175.56
2023-04-01T21:08:24.457Z,100187.94
2023-04-01T21:11:02.044Z,100184.63
2023-04-01T21:13:42.085Z,100199.75
2023-04-01T21:16:34.765Z,100198.09
2023-04-01T21:19:13.730Z,100206.34
2023-04-01T21:21:58.305Z,100212.69
2023-04-01T21:24:53.639Z,100213.19
2023-04-01T21:27:35.459Z,100217.91
2023-04-01T21:30:14.738Z,100229.16
2023-04-01T21:32:57.233Z,100237.69
2023-04-01T21:35:34.111Z,100242.91
2023-04-01T21:38:28.063Z,100248.94
2023-04-01T21:41:05.751Z,100246.44
2023-04-01T21:43:49.678Z,100255.78
2023-04-01T21:46:49.668Z,100275.25
2023-04-01T21:49:39.285Z,100271.97
2023-04-01T21:52:25.762Z,100278.56
2023-04-01T21:55:14.762Z,100282.44
2023-04-01T21:58:09.755Z,100287.88
2023-04-01T22:00:39.393Z,100284.28
2023-04-01T22:03:48.442Z,100295.88
2023-04-01T22:06:27.227Z,100296.63
2023-04-01T22:09:03.455Z,100307.13
2023-04-01T22:11:44.541Z,100304.88
2023-04-01T22:14:16.913Z,100315.84
2023-04-01T22:16:51.322Z,100319.84
2023-04-01T22:19:23.097Z,100323.44
2023-04-01T22:21:56.922Z,100332.69
2023-04-01T22:24:27.653Z,100331.88
2023-04-01T22:27:01.675Z,100336.81
2023-04-01T22:29:35.189Z,100340.88
2023-04-01T22:32:07.968Z,100342.28
2023-04-01T22:34:40.932Z,100354.38
2023-04-01T22:37:12.743Z,100350.22
2023-04-01T22:39:51.621Z,100361.31
2023-04-01T22:42:32.456Z,100366.47
2023-04-01T22:45:08.773Z,100373.97
2023-04-01T22:47:46.288Z,100378.06
2023-04-01T22:50:19.302Z,100378.41
2023-04-01T22:52:48.617Z,100385.00
2023-04-01T22:55:18.426Z,100380.03
2023-04-01T22:57:49.589Z,100388.47
2023-04-01T23:00:21.376Z,100393.94
2023-04-01T23:03:03.762Z,100397.91
2023-04-01T23:05:32.829Z,100407.09
2023-04-01T23:08:17.721Z,100403.75
2023-04-01T23:10:50.726Z,100409.22
2023-04-01T23:13:23.367Z,100415.41
2023-04-01T23:15:52.546Z,100420.91
2023-04-01T23:18:25.270Z,100430.66
2023-04-01T23:20:59.593Z,100433.06
2023-04-01T23:23:39.604Z,100434.09
2023-04-01T23:26:11.376Z,100435.31
2023-04-01T23:28:45.762Z,100447.31
2023-04-01T23:31:32.279Z,100443.41
2023-04-01T23:34:02.554Z,100447.03
2023-04-01T23:36:31.362Z,100457.88
2023-04-01T23:39:02.618Z,100460.78
2023-04-01T23:41:31.550Z,100463.97
2023-04-01T23:44:02.393Z,100473.72
2023-04-01T23:46:31.186Z,100480.72
2023-04-01T23:48:57.848Z,100488.53
2023-04-01T23:51:28.083Z,100481.75
2023-04-01T23:54:01.997Z,100494.59
2023-04-01T23:56:41.694Z,100498.56
2023-04-01T23:59:14.902Z,100503.13
